Overview Statistics Trail Chart Weather Telemetry Raw packets
 

This is the latest recevied weather packets stored in our database for station/object DF1GD-10. If no packets are shown the sender has not sent any weather packets the latest 10 day(s).

<< 1 2 3 4 >>
Time Temp. Humidity Pressure Rain* Wind** Luminosity Snow
1788704946 31.11° C 16% 1021.7 hPa - - - -
1788704046 32.22° C 15% 1022 hPa - - - -
1788703146 31.67° C 16% 1022.1 hPa - - - -
1788702245 31.11° C 16% 1022.3 hPa - - - -
1788701345 27.22° C 22% 1022.4 hPa - - - -
1788700445 26.11° C 24% 1022.5 hPa - - - -
1788699545 25° C 26% 1022.8 hPa - - - -
1788697745 23.33° C 28% 1023.1 hPa - - - -
1788696845 22.78° C 29% 1023.3 hPa - - - -
1788695945 23.33° C 28% 1023.5 hPa - - - -
1788695044 25.56° C 23% 1023.7 hPa - - - -
1788694144 24.44° C 26% 1024 hPa - - - -
1788693244 26.11° C 24% 1024.1 hPa - - - -
1788692344 26.67° C 23% 1024.3 hPa - - - -
1788691444 21.11° C 33% 1024.5 hPa - - - -
1788690552 20.56° C 34% 1024.6 hPa - - - -
1788689644 19.44° C 36% 1024.7 hPa - - - -
1788688743 20.56° C 34% 1025 hPa - - - -
1788687843 20.56° C 34% 1025.2 hPa - - - -
1788686943 18.33° C 40% 1025.3 hPa - - - -
1788686043 16.67° C 43% 1025.3 hPa - - - -
1788685143 16.11° C 46% 1025.3 hPa - - - -
1788684243 15.56° C 48% 1025.3 hPa - - - -
1788683343 15° C 50% 1025.5 hPa - - - -
1788682442 14.44° C 51% 1025.5 hPa - - - -

* Rain since midnight (hover to see other rain measurements)
** Current wind speed in m/s (hover to see current wind gust speed)